createdAt,value
2023-01-28T00:01:43.563Z,3.60
2023-01-28T00:04:31.832Z,3.40
2023-01-28T00:07:19.667Z,3.10
2023-01-28T00:10:08.229Z,3.10
2023-01-28T00:12:55.838Z,4.00
2023-01-28T00:15:43.753Z,3.30
2023-01-28T00:18:33.149Z,3.20
2023-01-28T00:21:20.713Z,4.40
2023-01-28T00:24:09.750Z,3.80
2023-01-28T00:26:57.487Z,4.80
2023-01-28T00:29:45.683Z,4.40
2023-01-28T00:32:34.239Z,4.60
2023-01-28T00:35:22.364Z,4.20
2023-01-28T00:38:11.102Z,4.00
2023-01-28T00:41:30.150Z,3.70
2023-01-28T00:44:20.259Z,3.80
2023-01-28T00:47:08.578Z,3.30
2023-01-28T00:49:56.728Z,3.80
2023-01-28T00:52:44.719Z,4.40
2023-01-28T00:55:32.383Z,3.50
2023-01-28T00:58:21.511Z,3.80
2023-01-28T01:01:21.856Z,3.60
2023-01-28T01:04:09.720Z,3.30
2023-01-28T01:06:57.548Z,3.40
2023-01-28T01:09:46.621Z,3.60
2023-01-28T01:12:34.450Z,3.60
2023-01-28T01:15:23.163Z,3.80
2023-01-28T01:18:11.510Z,3.50
2023-01-28T01:21:00.085Z,4.00
2023-01-28T01:23:48.239Z,3.70
2023-01-28T01:26:36.110Z,3.90
2023-01-28T01:29:24.079Z,4.20
2023-01-28T01:32:11.945Z,4.50
2023-01-28T01:34:59.840Z,3.40
2023-01-28T01:37:47.810Z,3.70
2023-01-28T01:40:35.669Z,3.80
2023-01-28T01:43:23.754Z,3.30
2023-01-28T01:46:13.050Z,3.80
2023-01-28T01:49:21.903Z,4.00
2023-01-28T01:52:15.954Z,3.30
2023-01-28T01:55:12.961Z,3.60
2023-01-28T01:58:08.485Z,3.20
2023-01-28T02:00:57.754Z,3.50
2023-01-28T02:03:52.697Z,3.30
2023-01-28T02:06:42.223Z,3.20
2023-01-28T02:09:36.164Z,3.10
2023-01-28T02:12:31.244Z,3.70
2023-01-28T02:15:25.928Z,2.60
2023-01-28T02:18:14.076Z,4.10
2023-01-28T02:21:17.199Z,3.70
2023-01-28T02:24:46.406Z,3.80
2023-01-28T02:27:37.407Z,3.20
2023-01-28T02:30:42.090Z,3.50
2023-01-28T02:33:39.701Z,3.70
2023-01-28T02:36:29.112Z,3.50
2023-01-28T02:39:33.437Z,3.70
2023-01-28T02:42:28.223Z,3.60
2023-01-28T02:45:18.293Z,3.60
2023-01-28T02:48:06.210Z,3.50
2023-01-28T02:51:53.118Z,3.60
2023-01-28T02:55:16.155Z,3.90
2023-01-28T02:58:28.302Z,4.00
2023-01-28T03:01:48.994Z,4.60
2023-01-28T03:05:01.152Z,7.00
2023-01-28T03:07:50.816Z,4.30
2023-01-28T03:10:38.877Z,4.30
2023-01-28T03:13:45.366Z,4.70
2023-01-28T03:16:53.477Z,4.00
2023-01-28T03:20:00.552Z,3.80
2023-01-28T03:23:13.673Z,4.20
2023-01-28T03:26:26.629Z,3.60
2023-01-28T03:29:34.993Z,3.30
2023-01-28T03:32:44.979Z,4.50
2023-01-28T03:35:54.499Z,4.30
2023-01-28T03:38:43.787Z,4.00
2023-01-28T03:41:33.299Z,4.20
2023-01-28T03:44:39.808Z,5.50
2023-01-28T03:47:32.411Z,5.30
2023-01-28T03:50:21.874Z,5.50
2023-01-28T03:53:17.591Z,5.90
2023-01-28T03:56:18.576Z,5.20
2023-01-28T03:59:08.064Z,4.40
2023-01-28T04:01:56.054Z,4.20
2023-01-28T04:04:44.638Z,4.00
2023-01-28T04:07:33.813Z,3.50
2023-01-28T04:10:34.614Z,4.70
2023-01-28T04:13:29.405Z,4.10
2023-01-28T04:16:19.342Z,5.10
2023-01-28T04:19:07.859Z,5.00
2023-01-28T04:21:57.234Z,4.40
2023-01-28T04:24:46.198Z,4.60
2023-01-28T04:27:34.218Z,4.50
2023-01-28T04:30:31.621Z,4.20
2023-01-28T04:33:28.378Z,4.20
2023-01-28T04:36:22.022Z,4.40
2023-01-28T04:39:42.835Z,3.60
2023-01-28T04:42:37.952Z,4.00
2023-01-28T04:45:48.516Z,4.20
2023-01-28T04:49:14.814Z,4.40
2023-01-28T04:52:02.890Z,4.50
2023-01-28T04:55:04.433Z,4.70
2023-01-28T04:57:52.501Z,4.20
2023-01-28T05:00:40.697Z,4.40
2023-01-28T05:03:30.649Z,4.30
2023-01-28T05:06:18.860Z,4.30
2023-01-28T05:09:08.549Z,5.40
2023-01-28T05:11:56.760Z,5.90
2023-01-28T05:14:44.938Z,4.70
2023-01-28T05:17:38.111Z,4.80
2023-01-28T05:20:26.799Z,4.50
2023-01-28T05:23:17.974Z,4.70
2023-01-28T05:26:16.023Z,3.90
2023-01-28T05:29:04.917Z,4.50
2023-01-28T05:31:53.286Z,4.90
2023-01-28T05:34:41.465Z,4.50
2023-01-28T05:37:32.813Z,3.20
2023-01-28T05:40:20.974Z,3.70
2023-01-28T05:43:09.026Z,3.40
2023-01-28T05:46:00.459Z,3.30
2023-01-28T05:48:53.444Z,3.80
2023-01-28T05:52:08.997Z,3.00
2023-01-28T05:54:57.281Z,3.10
2023-01-28T05:57:46.568Z,3.30
2023-01-28T06:00:35.449Z,3.20
2023-01-28T06:03:24.149Z,3.00
2023-01-28T06:06:12.577Z,2.60
2023-01-28T06:09:00.664Z,3.50
2023-01-28T06:11:51.232Z,4.40
2023-01-28T06:14:39.944Z,2.30
2023-01-28T06:17:36.061Z,2.10
2023-01-28T06:20:29.498Z,2.10
2023-01-28T06:23:18.981Z,2.70
2023-01-28T06:26:06.942Z,4.00
2023-01-28T06:28:56.478Z,5.30
2023-01-28T06:31:44.672Z,5.40
2023-01-28T06:34:33.302Z,4.20
2023-01-28T06:37:21.450Z,4.00
2023-01-28T06:40:10.451Z,3.40
2023-01-28T06:42:58.598Z,3.10
2023-01-28T06:45:46.863Z,2.90
2023-01-28T06:48:36.025Z,3.40
2023-01-28T06:51:23.692Z,3.20
2023-01-28T06:54:11.570Z,2.90
2023-01-28T06:56:59.577Z,3.60
2023-01-28T06:59:47.476Z,3.10
2023-01-28T07:02:35.510Z,3.00
2023-01-28T07:05:24.324Z,3.20
2023-01-28T07:08:12.148Z,2.90
2023-01-28T07:11:00.797Z,3.00
2023-01-28T07:13:48.723Z,2.90
2023-01-28T07:16:36.659Z,3.30
2023-01-28T07:19:24.373Z,2.90
2023-01-28T07:22:12.560Z,2.80
2023-01-28T07:25:01.301Z,2.90
2023-01-28T07:27:52.610Z,2.60
2023-01-28T07:30:40.781Z,2.70
2023-01-28T07:33:28.700Z,2.40
2023-01-28T07:36:16.739Z,2.60
2023-01-28T07:39:05.237Z,2.50
2023-01-28T07:41:53.512Z,3.00
2023-01-28T07:45:05.224Z,2.20
2023-01-28T07:47:58.477Z,2.50
2023-01-28T07:50:48.662Z,2.10
2023-01-28T07:53:36.604Z,2.40
2023-01-28T07:56:24.627Z,2.10
2023-01-28T07:59:12.582Z,2.40
2023-01-28T08:02:01.364Z,2.20
2023-01-28T08:04:49.650Z,2.10
2023-01-28T08:07:37.745Z,2.20
2023-01-28T08:10:26.139Z,2.30
2023-01-28T08:13:16.245Z,2.20
2023-01-28T08:16:04.478Z,2.20
2023-01-28T08:18:53.101Z,2.10
2023-01-28T08:21:41.128Z,2.20
2023-01-28T08:24:29.401Z,2.00
2023-01-28T08:27:17.484Z,2.20
2023-01-28T08:30:06.692Z,2.30
2023-01-28T08:33:00.378Z,2.60
2023-01-28T08:35:48.559Z,2.60
2023-01-28T08:38:36.656Z,2.30
2023-01-28T08:41:25.753Z,3.10
2023-01-28T08:44:14.099Z,3.80
2023-01-28T08:47:02.971Z,3.50
2023-01-28T08:49:51.274Z,3.10
2023-01-28T08:52:39.232Z,3.40
2023-01-28T08:55:28.953Z,3.60
2023-01-28T08:58:18.798Z,3.60
2023-01-28T09:01:07.083Z,3.30
2023-01-28T09:03:55.016Z,4.00
2023-01-28T09:06:42.964Z,4.70
2023-01-28T09:09:31.561Z,6.20
2023-01-28T09:12:19.230Z,5.60
2023-01-28T09:15:08.032Z,6.10
2023-01-28T09:17:59.424Z,6.20
2023-01-28T09:20:47.678Z,6.50
2023-01-28T09:23:38.120Z,6.00
2023-01-28T09:26:26.481Z,6.00
2023-01-28T09:29:14.624Z,5.60
2023-01-28T09:32:02.427Z,4.90
2023-01-28T09:34:51.550Z,4.70
2023-01-28T09:37:39.630Z,4.80
2023-01-28T09:40:45.011Z,5.00
2023-01-28T09:43:54.601Z,3.50
2023-01-28T09:46:45.692Z,4.00
2023-01-28T09:49:45.974Z,3.90
2023-01-28T09:52:39.576Z,3.80
2023-01-28T09:55:36.786Z,3.70
2023-01-28T09:58:24.476Z,3.40
2023-01-28T10:01:47.875Z,4.20
2023-01-28T10:04:44.701Z,4.30
2023-01-28T10:07:53.270Z,4.90
2023-01-28T10:10:52.453Z,6.40
2023-01-28T10:13:59.642Z,6.70
2023-01-28T10:17:01.116Z,5.40
2023-01-28T10:19:57.085Z,5.90
2023-01-28T10:22:52.519Z,6.40
2023-01-28T10:25:45.232Z,6.40
2023-01-28T10:28:36.862Z,7.10
2023-01-28T10:31:32.366Z,8.60
2023-01-28T10:34:22.602Z,8.40
2023-01-28T10:37:15.143Z,7.00
2023-01-28T10:40:04.229Z,7.60
2023-01-28T10:42:52.406Z,7.70
2023-01-28T10:46:10.982Z,8.80
2023-01-28T10:49:16.412Z,7.90
2023-01-28T10:52:15.625Z,8.90
2023-01-28T10:55:06.728Z,7.70
2023-01-28T10:57:55.153Z,8.70
2023-01-28T11:00:43.559Z,8.00
2023-01-28T11:03:32.351Z,8.10
2023-01-28T11:06:33.853Z,9.30
2023-01-28T11:09:31.402Z,8.80
2023-01-28T11:12:27.656Z,7.80
2023-01-28T11:15:18.946Z,7.60
2023-01-28T11:18:36.321Z,7.30
2023-01-28T11:21:27.961Z,7.50
2023-01-28T11:24:26.384Z,7.20
2023-01-28T11:27:18.780Z,6.60
2023-01-28T11:30:23.220Z,7.10
2023-01-28T11:33:26.502Z,7.10
2023-01-28T11:36:20.274Z,6.90
2023-01-28T11:39:37.227Z,6.00
2023-01-28T11:42:25.242Z,6.70
2023-01-28T11:45:22.879Z,6.80
2023-01-28T11:48:58.889Z,6.30
2023-01-28T11:51:56.987Z,6.60
2023-01-28T11:54:54.909Z,6.70
2023-01-28T11:58:28.678Z,6.60
2023-01-28T12:01:49.492Z,7.20
2023-01-28T12:04:55.889Z,7.30
2023-01-28T12:08:24.895Z,6.70
2023-01-28T12:11:47.524Z,7.40
2023-01-28T12:14:44.731Z,6.80
2023-01-28T12:17:43.496Z,6.10
2023-01-28T12:21:15.152Z,5.20
2023-01-28T12:24:27.381Z,4.90
2023-01-28T12:27:37.554Z,5.10
2023-01-28T12:31:02.217Z,4.50
2023-01-28T12:34:11.785Z,5.00
2023-01-28T12:37:14.358Z,5.00
2023-01-28T12:40:43.171Z,5.00
2023-01-28T12:44:02.460Z,5.40
2023-01-28T12:47:04.380Z,4.90
2023-01-28T12:50:25.991Z,4.60
2023-01-28T12:53:38.551Z,4.40
2023-01-28T12:56:53.644Z,4.70
2023-01-28T12:59:53.217Z,4.10
2023-01-28T13:02:50.370Z,4.50
2023-01-28T13:05:46.566Z,4.70
2023-01-28T13:08:34.864Z,4.00
2023-01-28T13:11:36.593Z,4.40
2023-01-28T13:14:32.267Z,3.80
2023-01-28T13:17:36.498Z,4.30
2023-01-28T13:20:54.144Z,4.10
2023-01-28T13:23:46.871Z,4.20
2023-01-28T13:26:54.728Z,4.70
2023-01-28T13:29:48.547Z,4.10
2023-01-28T13:32:37.061Z,4.70
2023-01-28T13:35:40.482Z,4.10
2023-01-28T13:38:30.153Z,3.90
2023-01-28T13:41:18.643Z,3.90
2023-01-28T13:44:18.388Z,4.30
2023-01-28T13:47:08.818Z,4.30
2023-01-28T13:50:18.911Z,4.30
2023-01-28T13:53:37.115Z,3.80
2023-01-28T13:56:37.693Z,3.60
2023-01-28T13:59:53.560Z,3.40
2023-01-28T14:03:36.098Z,3.30
2023-01-28T14:06:53.086Z,3.60
2023-01-28T14:10:09.981Z,3.60
2023-01-28T14:13:30.235Z,3.30
2023-01-28T14:16:38.687Z,3.40
2023-01-28T14:19:34.549Z,3.00
2023-01-28T14:22:22.662Z,2.80
2023-01-28T14:25:22.616Z,3.90
2023-01-28T14:28:20.901Z,3.80
2023-01-28T14:31:38.694Z,4.10
2023-01-28T14:34:35.953Z,4.40
2023-01-28T14:37:30.631Z,3.10
2023-01-28T14:40:19.441Z,3.40
2023-01-28T14:43:16.423Z,3.40
2023-01-28T14:46:47.874Z,4.90
2023-01-28T14:50:09.247Z,5.00
2023-01-28T14:53:26.460Z,4.80
2023-01-28T14:56:39.160Z,4.80
2023-01-28T14:59:31.431Z,4.10
2023-01-28T15:02:24.108Z,3.80
2023-01-28T15:05:22.759Z,5.50
2023-01-28T15:08:23.699Z,6.10
2023-01-28T15:11:16.730Z,6.00
2023-01-28T15:14:10.787Z,5.60
2023-01-28T15:17:00.240Z,5.70
2023-01-28T15:19:48.416Z,5.30
2023-01-28T15:22:37.579Z,5.20
2023-01-28T15:25:29.638Z,6.20
2023-01-28T15:28:42.536Z,6.10
2023-01-28T15:31:39.071Z,6.40
2023-01-28T15:34:30.559Z,7.30
2023-01-28T15:37:19.666Z,5.50
2023-01-28T15:40:18.294Z,5.70
2023-01-28T15:43:06.200Z,5.90
2023-01-28T15:45:57.093Z,4.80
2023-01-28T15:48:50.894Z,5.00
2023-01-28T15:51:39.103Z,4.60
2023-01-28T15:54:30.406Z,5.30
2023-01-28T15:57:35.328Z,5.30
2023-01-28T16:00:25.812Z,5.70
2023-01-28T16:03:21.128Z,6.40
2023-01-28T16:06:22.073Z,5.80
2023-01-28T16:09:39.054Z,6.00
2023-01-28T16:12:27.700Z,7.10
2023-01-28T16:15:19.795Z,6.60
2023-01-28T16:18:29.264Z,6.40
2023-01-28T16:21:36.956Z,6.10
2023-01-28T16:24:36.404Z,5.90
2023-01-28T16:27:28.092Z,5.70
2023-01-28T16:30:17.494Z,5.80
2023-01-28T16:33:05.659Z,5.40
2023-01-28T16:36:07.803Z,5.90
2023-01-28T16:38:59.975Z,12.20
2023-01-28T16:41:49.640Z,6.60
2023-01-28T16:44:37.509Z,7.50
2023-01-28T16:47:25.787Z,6.20
2023-01-28T16:50:15.254Z,6.30
2023-01-28T16:53:04.163Z,7.40
2023-01-28T16:55:52.517Z,7.10
2023-01-28T16:58:40.581Z,7.60
2023-01-28T17:01:28.947Z,7.40
2023-01-28T17:04:17.193Z,7.00
2023-01-28T17:07:05.613Z,7.00
2023-01-28T17:09:53.778Z,7.90
2023-01-28T17:12:41.843Z,7.20
2023-01-28T17:15:29.495Z,7.30
2023-01-28T17:18:17.543Z,6.40
2023-01-28T17:21:09.274Z,6.90
2023-01-28T17:23:58.374Z,6.60
2023-01-28T17:26:46.847Z,6.30
2023-01-28T17:29:34.823Z,6.70
2023-01-28T17:32:22.877Z,5.90
2023-01-28T17:35:12.442Z,6.70
2023-01-28T17:38:00.851Z,7.50
2023-01-28T17:40:49.101Z,7.10
2023-01-28T17:43:36.973Z,7.50
2023-01-28T17:46:26.891Z,7.80
2023-01-28T17:49:15.251Z,7.10
2023-01-28T17:52:03.489Z,7.20
2023-01-28T17:54:51.937Z,7.30
2023-01-28T17:57:40.294Z,7.40
2023-01-28T18:00:28.589Z,7.50
2023-01-28T18:03:16.926Z,6.40
2023-01-28T18:06:07.384Z,7.40
2023-01-28T18:08:55.189Z,6.30
2023-01-28T18:11:43.102Z,6.50
2023-01-28T18:14:31.643Z,7.00
2023-01-28T18:17:19.618Z,6.40
2023-01-28T18:20:07.933Z,7.10
2023-01-28T18:22:58.993Z,6.40
2023-01-28T18:25:47.329Z,5.90
2023-01-28T18:28:36.074Z,6.10
2023-01-28T18:31:26.141Z,6.40
2023-01-28T18:34:17.044Z,5.50
2023-01-28T18:37:07.143Z,5.20
2023-01-28T18:39:55.277Z,4.60
2023-01-28T18:42:43.225Z,4.90
2023-01-28T18:45:32.100Z,4.30
2023-01-28T18:48:20.102Z,4.80
2023-01-28T18:51:17.457Z,5.00
2023-01-28T18:54:16.117Z,4.40
2023-01-28T18:57:04.206Z,4.70
2023-01-28T18:59:52.516Z,4.80
2023-01-28T19:02:40.444Z,5.20
2023-01-28T19:05:29.246Z,4.30
2023-01-28T19:08:17.877Z,4.90
2023-01-28T19:11:05.674Z,4.30
2023-01-28T19:13:54.270Z,3.50
2023-01-28T19:16:42.181Z,3.40
2023-01-28T19:19:30.683Z,4.20
2023-01-28T19:22:18.855Z,3.20
2023-01-28T19:25:08.450Z,3.50
2023-01-28T19:27:56.636Z,3.60
2023-01-28T19:30:44.867Z,3.20
2023-01-28T19:33:33.117Z,4.00
2023-01-28T19:36:21.785Z,4.80
2023-01-28T19:39:11.685Z,4.50
2023-01-28T19:42:02.325Z,3.50
2023-01-28T19:44:51.412Z,4.50
2023-01-28T19:47:40.228Z,4.50
2023-01-28T19:50:28.353Z,4.40
2023-01-28T19:53:16.475Z,3.80
2023-01-28T19:56:09.447Z,4.10
2023-01-28T19:58:57.809Z,4.10
2023-01-28T20:01:46.395Z,4.70
2023-01-28T20:04:34.766Z,4.20
2023-01-28T20:07:23.248Z,4.40
2023-01-28T20:10:12.329Z,4.80
2023-01-28T20:13:00.092Z,4.60
2023-01-28T20:15:48.045Z,4.70
2023-01-28T20:18:36.296Z,3.80
2023-01-28T20:21:25.923Z,3.80
2023-01-28T20:24:15.453Z,4.50
2023-01-28T20:27:03.671Z,5.60
2023-01-28T20:29:53.548Z,4.60
2023-01-28T20:32:41.734Z,4.00
2023-01-28T20:35:30.032Z,5.00
2023-01-28T20:38:18.125Z,4.20
2023-01-28T20:41:21.546Z,4.40
2023-01-28T20:44:09.429Z,4.40
2023-01-28T20:46:58.365Z,3.90
2023-01-28T20:49:46.268Z,3.80
2023-01-28T20:52:34.303Z,4.50
2023-01-28T20:55:21.979Z,3.70
2023-01-28T20:58:09.863Z,3.40
2023-01-28T21:00:58.409Z,3.20
2023-01-28T21:03:46.984Z,3.40
2023-01-28T21:06:42.222Z,3.10
2023-01-28T21:09:30.165Z,3.90
2023-01-28T21:12:18.322Z,3.40
2023-01-28T21:15:08.129Z,3.90
2023-01-28T21:17:55.976Z,4.20
2023-01-28T21:20:45.078Z,3.80
2023-01-28T21:23:33.311Z,3.70
2023-01-28T21:26:21.871Z,3.70
2023-01-28T21:29:10.200Z,3.20
2023-01-28T21:31:58.454Z,3.80
2023-01-28T21:34:46.856Z,3.80
2023-01-28T21:37:34.749Z,2.90
2023-01-28T21:40:23.029Z,3.10
2023-01-28T21:43:13.287Z,3.70
2023-01-28T21:46:02.454Z,3.30
2023-01-28T21:48:54.529Z,4.30
2023-01-28T21:51:51.754Z,4.30
2023-01-28T21:54:39.795Z,3.90
2023-01-28T21:57:27.905Z,3.40
2023-01-28T22:00:17.099Z,4.40
2023-01-28T22:03:05.243Z,3.90
2023-01-28T22:05:56.228Z,3.90
2023-01-28T22:08:44.300Z,3.50
2023-01-28T22:11:32.697Z,3.20
2023-01-28T22:14:22.273Z,4.30
2023-01-28T22:17:13.049Z,3.50
2023-01-28T22:20:00.859Z,3.40
2023-01-28T22:22:48.645Z,3.60
2023-01-28T22:25:36.711Z,2.80
2023-01-28T22:28:26.311Z,3.20
2023-01-28T22:31:17.025Z,3.70
2023-01-28T22:34:06.612Z,3.20
2023-01-28T22:36:54.300Z,3.50
2023-01-28T22:39:42.466Z,3.50
2023-01-28T22:42:30.476Z,3.20
2023-01-28T22:45:18.362Z,3.10
2023-01-28T22:48:07.070Z,3.30
2023-01-28T22:50:55.056Z,3.30
2023-01-28T22:53:43.500Z,3.90
2023-01-28T22:56:32.017Z,3.50
2023-01-28T22:59:19.913Z,4.20
2023-01-28T23:02:07.705Z,3.20
2023-01-28T23:04:55.779Z,4.00
2023-01-28T23:07:43.758Z,3.80
2023-01-28T23:10:33.785Z,3.90
2023-01-28T23:13:24.021Z,3.40
2023-01-28T23:16:30.181Z,3.60
2023-01-28T23:19:37.092Z,3.50
2023-01-28T23:22:50.531Z,3.80
2023-01-28T23:25:38.392Z,3.70
2023-01-28T23:28:26.608Z,2.80
2023-01-28T23:31:14.746Z,3.40
2023-01-28T23:34:03.553Z,3.90
2023-01-28T23:36:51.902Z,3.30
2023-01-28T23:39:40.432Z,4.50
2023-01-28T23:42:28.704Z,3.40
2023-01-28T23:45:17.955Z,3.90
2023-01-28T23:48:06.038Z,3.20
2023-01-28T23:50:57.341Z,4.00
2023-01-28T23:53:45.250Z,3.30
2023-01-28T23:56:35.526Z,4.10
2023-01-28T23:59:24.856Z,3.60
